createdAt,value
2022-10-03T00:00:15.251Z,4.20
2022-10-03T00:03:11.251Z,3.60
2022-10-03T00:05:52.022Z,3.95
2022-10-03T00:08:32.926Z,4.57
2022-10-03T00:11:10.959Z,3.92
2022-10-03T00:13:47.418Z,4.60
2022-10-03T00:16:21.217Z,3.30
2022-10-03T00:18:57.447Z,4.70
2022-10-03T00:21:43.391Z,5.03
2022-10-03T00:24:22.632Z,4.20
2022-10-03T00:26:57.714Z,3.80
2022-10-03T00:29:37.558Z,4.38
2022-10-03T00:32:16.486Z,4.45
2022-10-03T00:34:58.562Z,4.47
2022-10-03T00:37:35.078Z,3.88
2022-10-03T00:40:31.233Z,3.92
2022-10-03T00:43:22.346Z,4.55
2022-10-03T00:46:13.093Z,4.80
2022-10-03T00:49:01.407Z,4.95
2022-10-03T00:51:51.738Z,3.15
2022-10-03T00:54:34.792Z,3.85
2022-10-03T00:57:20.796Z,3.28
2022-10-03T01:00:06.212Z,3.83
2022-10-03T01:02:47.193Z,3.15
2022-10-03T01:05:31.238Z,3.40
2022-10-03T01:08:13.857Z,3.83
2022-10-03T01:10:49.793Z,4.50
2022-10-03T01:13:32.406Z,3.33
2022-10-03T01:16:11.270Z,3.45
2022-10-03T01:18:52.233Z,3.22
2022-10-03T01:21:29.697Z,3.33
2022-10-03T01:24:22.002Z,2.90
2022-10-03T01:26:56.821Z,3.80
2022-10-03T01:29:51.085Z,3.75
2022-10-03T01:32:24.281Z,2.78
2022-10-03T01:34:57.947Z,3.75
2022-10-03T01:37:33.014Z,3.10
2022-10-03T01:40:09.172Z,3.88
2022-10-03T01:42:44.688Z,3.00
2022-10-03T01:45:28.495Z,3.25
2022-10-03T01:48:01.580Z,3.05
2022-10-03T01:50:34.294Z,3.60
2022-10-03T01:53:13.406Z,3.58
2022-10-03T01:55:55.709Z,2.70
2022-10-03T01:58:28.687Z,3.15
2022-10-03T02:01:07.266Z,2.65
2022-10-03T02:03:40.294Z,3.03
2022-10-03T02:06:18.465Z,2.90
2022-10-03T02:08:55.509Z,2.20
2022-10-03T02:11:30.958Z,2.10
2022-10-03T02:14:07.592Z,2.10
2022-10-03T02:16:43.991Z,2.50
2022-10-03T02:19:22.242Z,1.95
2022-10-03T02:21:54.911Z,2.17
2022-10-03T02:24:39.651Z,1.90
2022-10-03T02:27:28.730Z,2.20
2022-10-03T02:30:10.662Z,2.45
2022-10-03T02:33:05.575Z,2.17
2022-10-03T02:35:52.314Z,2.67
2022-10-03T02:38:37.674Z,2.05
2022-10-03T02:41:19.081Z,2.13
2022-10-03T02:44:15.111Z,2.33
2022-10-03T02:47:09.878Z,2.30
2022-10-03T02:50:00.167Z,2.50
2022-10-03T02:52:52.846Z,2.50
2022-10-03T02:55:45.589Z,1.92
2022-10-03T02:58:44.461Z,2.97
2022-10-03T03:01:40.769Z,2.70
2022-10-03T03:04:38.326Z,2.80
2022-10-03T03:07:30.773Z,2.90
2022-10-03T03:10:23.201Z,2.90
2022-10-03T03:13:16.759Z,2.60
2022-10-03T03:16:12.664Z,2.75
2022-10-03T03:18:45.375Z,2.97
2022-10-03T03:21:27.651Z,3.28
2022-10-03T03:24:11.982Z,3.10
2022-10-03T03:26:56.741Z,3.25
2022-10-03T03:29:35.366Z,2.55
2022-10-03T03:32:14.294Z,2.75
2022-10-03T03:34:52.943Z,2.63
2022-10-03T03:37:31.163Z,2.25
2022-10-03T03:40:12.257Z,2.67
2022-10-03T03:43:05.591Z,2.40
2022-10-03T03:45:50.420Z,2.85
2022-10-03T03:48:39.774Z,2.65
2022-10-03T03:51:22.670Z,3.25
2022-10-03T03:54:06.909Z,2.47
2022-10-03T03:57:01.199Z,2.20
2022-10-03T03:59:44.655Z,1.80
2022-10-03T04:02:26.855Z,1.90
2022-10-03T04:05:07.874Z,2.10
2022-10-03T04:07:51.818Z,2.00
2022-10-03T04:10:32.070Z,2.40
2022-10-03T04:13:17.970Z,2.30
2022-10-03T04:16:01.765Z,2.80
2022-10-03T04:19:03.478Z,3.15
2022-10-03T04:21:41.824Z,2.08
2022-10-03T04:24:29.877Z,2.85
2022-10-03T04:27:11.508Z,2.80
2022-10-03T04:29:58.366Z,3.03
2022-10-03T04:32:48.225Z,2.72
2022-10-03T04:35:34.082Z,3.60
2022-10-03T04:38:12.235Z,4.00
2022-10-03T04:40:49.337Z,3.10
2022-10-03T04:43:25.254Z,3.25
2022-10-03T04:46:11.139Z,4.45
2022-10-03T04:48:46.689Z,3.20
2022-10-03T04:51:24.399Z,2.95
2022-10-03T04:54:02.188Z,3.25
2022-10-03T04:56:45.126Z,4.90
2022-10-03T04:59:31.714Z,4.60
2022-10-03T05:02:08.064Z,4.57
2022-10-03T05:04:45.365Z,4.72
2022-10-03T05:07:21.942Z,4.40
2022-10-03T05:09:53.893Z,3.50
2022-10-03T05:12:32.738Z,4.03
2022-10-03T05:15:19.974Z,3.70
2022-10-03T05:18:04.086Z,4.60
2022-10-03T05:20:48.398Z,3.88
2022-10-03T05:23:29.553Z,4.60
2022-10-03T05:26:39.192Z,4.72
2022-10-03T05:29:02.773Z,4.20
2022-10-03T05:31:44.407Z,3.88
2022-10-03T05:34:24.325Z,5.00
2022-10-03T05:37:05.282Z,4.97
2022-10-03T05:39:43.663Z,5.00
2022-10-03T05:42:42.109Z,4.95
2022-10-03T05:45:25.001Z,4.30
2022-10-03T05:47:56.468Z,5.93
2022-10-03T05:50:42.424Z,4.93
2022-10-03T05:53:43.671Z,4.68
2022-10-03T05:56:29.519Z,5.65
2022-10-03T05:59:23.436Z,4.05
2022-10-03T06:02:24.271Z,4.65
2022-10-03T06:05:09.184Z,4.88
2022-10-03T06:07:48.034Z,5.65
2022-10-03T06:10:39.164Z,6.10
2022-10-03T06:13:14.643Z,7.40
2022-10-03T06:15:54.208Z,7.03
2022-10-03T06:18:37.381Z,7.43
2022-10-03T06:21:33.433Z,7.35
2022-10-03T06:24:30.982Z,6.88
2022-10-03T06:27:28.953Z,7.07
2022-10-03T06:30:11.542Z,6.00
2022-10-03T06:33:09.246Z,6.00
2022-10-03T06:36:03.332Z,5.90
2022-10-03T06:38:53.917Z,5.80
2022-10-03T06:41:49.007Z,6.28
2022-10-03T06:44:29.414Z,6.22
2022-10-03T06:47:15.993Z,5.47
2022-10-03T06:50:13.733Z,5.55
2022-10-03T06:53:02.635Z,4.15
2022-10-03T06:55:48.817Z,4.43
2022-10-03T06:58:43.254Z,4.25
2022-10-03T07:01:44.358Z,4.22
2022-10-03T07:04:37.347Z,4.40
2022-10-03T07:07:20.834Z,4.32
2022-10-03T07:10:17.069Z,4.82
2022-10-03T07:13:00.979Z,3.30
2022-10-03T07:16:14.240Z,3.75
2022-10-03T07:19:01.329Z,4.47
2022-10-03T07:21:54.611Z,4.15
2022-10-03T07:24:54.742Z,4.30
2022-10-03T07:27:40.874Z,4.35
2022-10-03T07:30:14.378Z,4.05
2022-10-03T07:33:11.415Z,4.32
2022-10-03T07:36:04.357Z,4.10
2022-10-03T07:39:01.510Z,4.07
2022-10-03T07:41:47.269Z,5.38
2022-10-03T07:44:36.699Z,4.57
2022-10-03T07:47:45.884Z,4.70
2022-10-03T07:50:31.714Z,4.25
2022-10-03T07:53:21.672Z,3.77
2022-10-03T07:56:08.577Z,4.50
2022-10-03T07:58:54.350Z,4.60
2022-10-03T08:01:42.693Z,3.50
2022-10-03T08:04:36.051Z,3.93
2022-10-03T08:07:22.365Z,3.50
2022-10-03T08:10:07.366Z,3.57
2022-10-03T08:12:52.741Z,3.60
2022-10-03T08:15:30.604Z,3.70
2022-10-03T08:18:16.309Z,3.90
2022-10-03T08:20:50.551Z,3.30
2022-10-03T08:23:40.634Z,3.50
2022-10-03T08:26:18.216Z,3.63
2022-10-03T08:29:06.590Z,4.83
2022-10-03T08:31:54.549Z,4.53
2022-10-03T08:34:39.980Z,4.50
2022-10-03T08:37:30.468Z,4.43
2022-10-03T08:40:40.367Z,4.33
2022-10-03T08:43:32.933Z,4.67
2022-10-03T08:46:12.254Z,4.80
2022-10-03T08:48:55.654Z,4.97
2022-10-03T08:51:53.152Z,4.53
2022-10-03T08:54:41.966Z,3.90
2022-10-03T08:57:20.530Z,4.40
2022-10-03T09:00:06.264Z,4.40
2022-10-03T09:03:28.591Z,4.43
2022-10-03T09:06:12.417Z,3.20
2022-10-03T09:08:57.693Z,3.20
2022-10-03T09:11:45.930Z,3.40
2022-10-03T09:14:43.439Z,3.20
2022-10-03T09:17:35.379Z,2.93
2022-10-03T09:20:26.377Z,2.70
2022-10-03T09:23:07.904Z,3.23
2022-10-03T09:25:59.070Z,4.13
2022-10-03T09:28:50.328Z,4.67
2022-10-03T09:31:32.706Z,3.50
2022-10-03T09:34:26.921Z,3.17
2022-10-03T09:37:21.125Z,2.83
2022-10-03T09:40:20.605Z,3.03
2022-10-03T09:43:10.961Z,3.83
2022-10-03T09:46:06.672Z,2.93
2022-10-03T09:48:47.594Z,3.10
2022-10-03T09:51:28.490Z,2.87
2022-10-03T09:54:24.958Z,2.40
2022-10-03T09:57:05.357Z,2.47
2022-10-03T09:59:53.030Z,2.70
2022-10-03T10:02:44.787Z,3.47
2022-10-03T10:05:35.231Z,4.90
2022-10-03T10:08:21.549Z,3.40
2022-10-03T10:11:01.330Z,3.07
2022-10-03T10:14:11.228Z,3.40
2022-10-03T10:16:54.883Z,3.40
2022-10-03T10:19:43.931Z,3.27
2022-10-03T10:22:37.258Z,3.90
2022-10-03T10:25:25.430Z,4.70
2022-10-03T10:28:14.220Z,4.40
2022-10-03T10:31:03.470Z,4.47
2022-10-03T10:34:10.318Z,4.40
2022-10-03T10:37:07.852Z,3.83
2022-10-03T10:39:58.432Z,5.17
2022-10-03T10:43:01.869Z,4.10
2022-10-03T10:45:48.256Z,4.13
2022-10-03T10:49:03.543Z,4.50
2022-10-03T10:52:01.440Z,4.60
2022-10-03T10:55:03.351Z,4.73
2022-10-03T10:58:04.859Z,4.73
2022-10-03T11:00:50.619Z,4.73
2022-10-03T11:03:57.119Z,4.70
2022-10-03T11:06:57.102Z,3.60
2022-10-03T11:09:37.223Z,4.67
2022-10-03T11:12:39.610Z,3.83
2022-10-03T11:15:47.524Z,3.73
2022-10-03T11:18:46.958Z,4.10
2022-10-03T11:21:46.846Z,4.60
2022-10-03T11:24:41.157Z,5.17
2022-10-03T11:27:34.909Z,4.03
2022-10-03T11:30:24.958Z,3.60
2022-10-03T11:33:22.584Z,4.70
2022-10-03T11:36:12.058Z,4.63
2022-10-03T11:38:49.910Z,4.33
2022-10-03T11:41:31.224Z,4.70
2022-10-03T11:44:09.041Z,5.07
2022-10-03T11:46:54.502Z,5.40
2022-10-03T11:49:40.067Z,5.03
2022-10-03T11:52:22.993Z,6.83
2022-10-03T11:55:00.554Z,5.40
2022-10-03T11:57:31.122Z,6.47
2022-10-03T12:00:05.532Z,6.57
2022-10-03T12:03:04.365Z,6.10
2022-10-03T12:05:49.354Z,6.47
2022-10-03T12:08:40.615Z,5.97
2022-10-03T12:11:17.274Z,5.70
2022-10-03T12:13:59.991Z,5.43
2022-10-03T12:16:30.898Z,5.73
2022-10-03T12:19:08.223Z,5.37
2022-10-03T12:21:46.556Z,5.90
2022-10-03T12:24:25.393Z,5.93
2022-10-03T12:26:59.660Z,6.60
2022-10-03T12:29:32.262Z,6.83
2022-10-03T12:32:12.973Z,5.83
2022-10-03T12:34:49.298Z,5.63
2022-10-03T12:37:33.985Z,5.00
2022-10-03T12:40:06.605Z,5.50
2022-10-03T12:42:40.782Z,5.60
2022-10-03T12:45:25.662Z,5.03
2022-10-03T12:48:02.110Z,5.57
2022-10-03T12:50:39.847Z,4.80
2022-10-03T12:53:25.174Z,4.87
2022-10-03T12:56:06.218Z,4.70
2022-10-03T12:58:48.829Z,3.80
2022-10-03T13:01:28.348Z,4.20
2022-10-03T13:03:59.755Z,5.70
2022-10-03T13:07:02.235Z,4.00
2022-10-03T13:09:46.654Z,4.83
2022-10-03T13:12:27.646Z,5.20
2022-10-03T13:15:26.622Z,4.70
2022-10-03T13:18:00.542Z,4.30
2022-10-03T13:20:33.592Z,4.77
2022-10-03T13:23:09.888Z,4.50
2022-10-03T13:25:45.333Z,4.57
2022-10-03T13:28:18.635Z,4.33
2022-10-03T13:30:53.810Z,4.57
2022-10-03T13:33:26.025Z,5.47
2022-10-03T13:35:59.205Z,3.67
2022-10-03T13:38:46.809Z,4.00
2022-10-03T13:41:27.950Z,4.67
2022-10-03T13:44:01.697Z,4.03
2022-10-03T13:46:38.155Z,3.20
2022-10-03T13:49:18.443Z,4.27
2022-10-03T13:51:53.892Z,4.17
2022-10-03T13:54:47.596Z,3.57
2022-10-03T13:57:21.945Z,3.03
2022-10-03T14:00:00.313Z,3.10
2022-10-03T14:02:43.804Z,2.97
2022-10-03T14:05:33.317Z,4.10
2022-10-03T14:08:10.311Z,3.20
2022-10-03T14:11:01.138Z,3.30
2022-10-03T14:13:37.365Z,4.10
2022-10-03T14:16:14.346Z,4.67
2022-10-03T14:18:51.757Z,3.70
2022-10-03T14:21:39.892Z,3.07
2022-10-03T14:24:21.125Z,3.30
2022-10-03T14:26:57.682Z,4.17
2022-10-03T14:29:32.646Z,3.97
2022-10-03T14:32:22.546Z,3.40
2022-10-03T14:35:02.032Z,2.70
2022-10-03T14:37:39.881Z,3.00
2022-10-03T14:40:18.182Z,3.30
2022-10-03T14:43:02.640Z,3.50
2022-10-03T14:45:40.804Z,2.50
2022-10-03T14:48:15.790Z,4.07
2022-10-03T14:50:45.137Z,3.00
2022-10-03T14:53:20.250Z,3.10
2022-10-03T14:56:00.558Z,3.77
2022-10-03T14:58:34.022Z,3.00
2022-10-03T15:01:10.586Z,3.10
2022-10-03T15:03:41.401Z,2.60
2022-10-03T15:06:22.451Z,3.37
2022-10-03T15:08:54.826Z,3.00
2022-10-03T15:11:27.521Z,3.20
2022-10-03T15:14:02.469Z,4.60
2022-10-03T15:16:44.578Z,2.90
2022-10-03T15:19:18.205Z,3.13
2022-10-03T15:21:48.189Z,3.40
2022-10-03T15:24:25.361Z,2.50
2022-10-03T15:27:02.337Z,2.97
2022-10-03T15:29:35.868Z,2.90
2022-10-03T15:32:08.256Z,2.90
2022-10-03T15:34:41.149Z,2.90
2022-10-03T15:37:17.283Z,2.67
2022-10-03T15:39:52.447Z,3.93
2022-10-03T15:42:25.429Z,3.03
2022-10-03T15:44:58.801Z,3.60
2022-10-03T15:47:27.972Z,2.90
2022-10-03T15:49:59.553Z,4.70
2022-10-03T15:52:34.077Z,2.57
2022-10-03T15:55:12.839Z,3.00
2022-10-03T15:57:45.905Z,3.50
2022-10-03T16:00:24.497Z,3.07
2022-10-03T16:02:59.699Z,3.83
2022-10-03T16:05:31.046Z,2.70
2022-10-03T16:08:07.790Z,3.87
2022-10-03T16:10:40.094Z,4.13
2022-10-03T16:13:26.819Z,3.57
2022-10-03T16:16:08.737Z,2.97
2022-10-03T16:18:54.620Z,3.53
2022-10-03T16:21:38.015Z,3.80
2022-10-03T16:24:13.953Z,2.87
2022-10-03T16:26:51.590Z,3.70
2022-10-03T16:29:24.803Z,2.70
2022-10-03T16:32:01.004Z,3.27
2022-10-03T16:34:31.111Z,2.60
2022-10-03T16:37:00.068Z,3.50
2022-10-03T16:39:32.709Z,2.70
2022-10-03T16:42:10.058Z,3.17
2022-10-03T16:44:43.487Z,2.70
2022-10-03T16:47:12.915Z,3.23
2022-10-03T16:49:58.409Z,3.50
2022-10-03T16:52:33.547Z,4.10
2022-10-03T16:55:05.325Z,3.15
2022-10-03T16:57:41.837Z,3.45
2022-10-03T17:00:18.676Z,3.13
2022-10-03T17:02:48.881Z,4.97
2022-10-03T17:05:18.351Z,2.78
2022-10-03T17:07:49.189Z,4.50
2022-10-03T17:10:29.928Z,3.88
2022-10-03T17:13:03.642Z,4.40
2022-10-03T17:15:35.212Z,3.85
2022-10-03T17:18:16.825Z,5.28
2022-10-03T17:20:49.153Z,3.80
2022-10-03T17:23:27.441Z,4.72
2022-10-03T17:26:03.606Z,3.88
2022-10-03T17:28:38.992Z,3.33
2022-10-03T17:31:16.926Z,3.45
2022-10-03T17:33:51.581Z,3.92
2022-10-03T17:36:50.482Z,5.13
2022-10-03T17:39:32.737Z,5.35
2022-10-03T17:42:05.946Z,4.38
2022-10-03T17:44:44.084Z,4.65
2022-10-03T17:47:23.381Z,4.40
2022-10-03T17:49:59.816Z,4.80
2022-10-03T17:52:28.497Z,4.45
2022-10-03T17:54:59.372Z,3.88
2022-10-03T17:57:31.618Z,4.38
2022-10-03T18:00:07.437Z,3.65
2022-10-03T18:02:39.819Z,4.30
2022-10-03T18:05:14.599Z,3.35
2022-10-03T18:07:44.213Z,4.72
2022-10-03T18:10:22.969Z,4.30
2022-10-03T18:12:53.731Z,4.57
2022-10-03T18:15:41.046Z,4.28
2022-10-03T18:18:34.222Z,3.70
2022-10-03T18:21:09.622Z,4.40
2022-10-03T18:23:54.625Z,5.15
2022-10-03T18:26:28.736Z,3.88
2022-10-03T18:29:11.437Z,4.00
2022-10-03T18:31:43.582Z,3.90
2022-10-03T18:34:19.617Z,4.53
2022-10-03T18:36:50.402Z,4.97
2022-10-03T18:39:21.734Z,4.53
2022-10-03T18:41:52.034Z,4.47
2022-10-03T18:44:21.934Z,4.78
2022-10-03T18:46:54.530Z,4.97
2022-10-03T18:49:34.878Z,4.97
2022-10-03T18:52:11.440Z,4.72
2022-10-03T18:54:53.834Z,6.50
2022-10-03T18:57:26.734Z,5.57
2022-10-03T19:00:01.722Z,6.10
2022-10-03T19:02:37.371Z,5.20
2022-10-03T19:05:13.049Z,5.55
2022-10-03T19:07:51.007Z,5.10
2022-10-03T19:10:28.672Z,5.25
2022-10-03T19:13:04.470Z,5.70
2022-10-03T19:15:44.098Z,5.78
2022-10-03T19:18:22.689Z,6.25
2022-10-03T19:20:54.708Z,5.93
2022-10-03T19:23:28.109Z,6.82
2022-10-03T19:25:59.263Z,8.30
2022-10-03T19:28:32.480Z,7.32
2022-10-03T19:31:05.517Z,7.03
2022-10-03T19:33:42.543Z,6.95
2022-10-03T19:36:16.709Z,7.88
2022-10-03T19:38:48.723Z,8.02
2022-10-03T19:41:27.731Z,7.13
2022-10-03T19:43:56.933Z,6.40
2022-10-03T19:46:48.636Z,6.63
2022-10-03T19:49:26.119Z,6.72
2022-10-03T19:52:11.286Z,8.13
2022-10-03T19:54:54.029Z,7.68
2022-10-03T19:57:27.518Z,7.10
2022-10-03T19:59:59.930Z,8.55
2022-10-03T20:02:29.912Z,7.15
2022-10-03T20:04:58.630Z,7.40
2022-10-03T20:07:44.102Z,8.50
2022-10-03T20:10:26.629Z,7.57
2022-10-03T20:12:54.845Z,7.47
2022-10-03T20:15:24.693Z,7.22
2022-10-03T20:17:57.592Z,7.40
2022-10-03T20:20:26.866Z,6.45
2022-10-03T20:22:57.014Z,7.80
2022-10-03T20:25:34.406Z,8.07
2022-10-03T20:28:05.570Z,6.80
2022-10-03T20:30:40.859Z,7.65
2022-10-03T20:33:09.182Z,8.57
2022-10-03T20:35:51.958Z,7.50
2022-10-03T20:38:30.070Z,7.75
2022-10-03T20:41:05.358Z,7.30
2022-10-03T20:43:41.641Z,8.32
2022-10-03T20:46:18.769Z,8.13
2022-10-03T20:48:59.974Z,8.30
2022-10-03T20:51:40.343Z,7.95
2022-10-03T20:54:14.261Z,7.78
2022-10-03T20:56:52.699Z,8.20
2022-10-03T20:59:27.117Z,8.38
2022-10-03T21:02:07.313Z,7.45
2022-10-03T21:04:40.854Z,8.02
2022-10-03T21:07:23.949Z,7.88
2022-10-03T21:10:00.061Z,6.72
2022-10-03T21:12:35.300Z,7.40
2022-10-03T21:15:07.528Z,7.35
2022-10-03T21:17:37.392Z,6.88
2022-10-03T21:20:11.513Z,6.35
2022-10-03T21:22:40.028Z,7.13
2022-10-03T21:25:18.663Z,7.75
2022-10-03T21:27:52.707Z,6.75
2022-10-03T21:30:23.123Z,7.85
2022-10-03T21:33:01.266Z,8.00
2022-10-03T21:35:31.325Z,7.63
2022-10-03T21:38:06.293Z,6.72
2022-10-03T21:40:48.709Z,7.25
2022-10-03T21:43:28.957Z,7.20
2022-10-03T21:46:05.536Z,6.75
2022-10-03T21:48:41.595Z,6.88
2022-10-03T21:51:22.637Z,7.20
2022-10-03T21:53:59.037Z,7.43
2022-10-03T21:56:48.085Z,6.50
2022-10-03T21:59:39.192Z,9.85
2022-10-03T22:02:14.658Z,7.50
2022-10-03T22:04:48.977Z,5.70
2022-10-03T22:29:13.958Z,5.50
2022-10-03T22:31:49.857Z,6.00
2022-10-03T22:34:29.942Z,6.13
2022-10-03T22:36:58.842Z,5.80
2022-10-03T22:39:30.038Z,5.97
2022-10-03T22:42:00.438Z,6.45
2022-10-03T22:44:31.445Z,5.88
2022-10-03T22:47:03.325Z,5.68
2022-10-03T22:49:35.086Z,6.28
2022-10-03T22:52:05.848Z,5.47
2022-10-03T22:54:38.046Z,6.30
2022-10-03T22:57:07.483Z,5.30
2022-10-03T22:59:39.373Z,5.60
2022-10-03T23:02:10.141Z,5.18
2022-10-03T23:04:41.726Z,5.57
2022-10-03T23:07:25.989Z,5.57
2022-10-03T23:10:05.361Z,5.22
2022-10-03T23:12:40.269Z,4.70
2022-10-03T23:15:11.082Z,7.13
2022-10-03T23:17:58.885Z,4.88
2022-10-03T23:20:45.322Z,5.30
2022-10-03T23:23:18.541Z,5.75
2022-10-03T23:26:01.865Z,6.07
2022-10-03T23:28:38.492Z,7.25
2022-10-03T23:31:06.242Z,6.03
2022-10-03T23:33:51.769Z,5.82
2022-10-03T23:36:24.377Z,8.35
2022-10-03T23:39:35.835Z,4.82
2022-10-03T23:42:21.794Z,6.00
2022-10-03T23:44:51.239Z,5.90
2022-10-03T23:47:24.427Z,4.88
2022-10-03T23:49:53.207Z,6.00
2022-10-03T23:52:25.821Z,4.93
2022-10-03T23:54:56.719Z,5.40
2022-10-03T23:57:31.358Z,5.30
2022-10-03T23:59:59.365Z,5.65
